Time;durP1;ratioP1;P1;durP2;ratioP2;P2;SDS_P1;SDS_P2;PMS_P1;PMS_P2;Temp;Humidity;BMP_temperature;BMP_pressure;BME280_temperature;BME280_humidity;BME280_pressure;Samples;Min_cycle;Max_cycle;Signal;HPM_P1;HPM_P2
2022/09/22 00:00:15;;;;;;;;;;;7.00;99.90;;;;;;5049554;28;19943;-68
2022/09/22 00:02:41;;;;;;;;;;;7.00;99.90;;;;;;5049238;28;20671;-68
2022/09/22 00:05:07;;;;;;;;;;;7.00;99.90;;;;;;5052560;28;19931;-68
2022/09/22 00:07:32;;;;;;;;;;;7.00;99.90;;;;;;5051278;28;19940;-68
2022/09/22 00:09:58;;;;;;;;;;;7.00;99.90;;;;;;5033023;28;19928;-68
2022/09/22 00:12:23;;;;;;;;;;;6.90;99.90;;;;;;5050740;28;19928;-68
2022/09/22 00:14:48;;;;;;;;;;;6.90;99.90;;;;;;5048925;28;19927;-68
2022/09/22 00:17:14;;;;;;;;;;;6.90;99.90;;;;;;5049059;28;20305;-68
2022/09/22 00:19:39;;;;;;;;;;;6.90;99.90;;;;;;5049450;28;19952;-68
2022/09/22 00:22:05;;;;;;;;;;;6.90;99.90;;;;;;5045141;28;19975;-68
2022/09/22 00:24:30;;;;;;;;;;;6.90;99.90;;;;;;5050548;28;19932;-68
2022/09/22 00:26:57;;;;;;;;;;;6.90;99.90;;;;;;5050913;28;19983;-68
2022/09/22 00:29:24;;;;;;;;;;;6.90;99.90;;;;;;5051816;28;19925;-68
2022/09/22 00:31:49;;;;;;;;;;;6.90;99.90;;;;;;5046641;28;19929;-68
2022/09/22 00:34:16;;;;;;;;;;;6.90;99.90;;;;;;5046682;28;19924;-68
2022/09/22 00:36:42;;;;;;;;;;;6.80;99.90;;;;;;5048727;28;19920;-68
2022/09/22 00:39:08;;;;;;;;;;;6.80;99.90;;;;;;5031883;28;19925;-68
2022/09/22 00:41:36;;;;;;;;;;;6.80;99.90;;;;;;5048510;28;19925;-68
2022/09/22 00:44:17;;;;;;;;;;;6.80;99.90;;;;;;5049067;28;19933;-68
2022/09/22 00:46:44;;;;;;;;;;;6.70;99.90;;;;;;5048838;28;20287;-68
2022/09/22 00:49:10;;;;;;;;;;;6.70;99.90;;;;;;5046973;28;19929;-68
2022/09/22 00:51:36;;;;;;;;;;;6.70;99.90;;;;;;5048805;28;19925;-68
2022/09/22 00:54:04;;;;;;;;;;;6.70;99.90;;;;;;5048897;28;19921;-68
2022/09/22 00:56:42;;;;;;;;;;;6.70;99.90;;;;;;5048370;28;19971;-68
2022/09/22 00:59:10;;;;;;;;;;;6.70;99.90;;;;;;5048621;28;20317;-68
2022/09/22 01:01:39;;;;;;;;;;;6.70;99.90;;;;;;5048618;28;19927;-68
2022/09/22 01:04:05;;;;;;;;;;;6.70;99.90;;;;;;5047849;28;19920;-68
2022/09/22 01:06:30;;;;;;;;;;;6.70;99.90;;;;;;5048433;28;19935;-68
2022/09/22 01:08:56;;;;;;;;;;;6.60;99.90;;;;;;5048609;28;20283;-68
2022/09/22 01:11:22;;;;;;;;;;;6.70;99.90;;;;;;5047700;28;19967;-68
2022/09/22 01:14:02;;;;;;;;;;;6.70;99.90;;;;;;5047265;28;19921;-68
2022/09/22 01:16:28;;;;;;;;;;;6.70;99.90;;;;;;5049649;28;19921;-68
2022/09/22 01:18:56;;;;;;;;;;;6.60;99.90;;;;;;5048547;28;20276;-68
2022/09/22 01:21:41;;;;;;;;;;;6.60;99.90;;;;;;5047225;28;20770;-68
2022/09/22 01:24:07;;;;;;;;;;;6.60;99.90;;;;;;5050166;28;20534;-68
2022/09/22 01:26:51;;;;;;;;;;;6.60;99.90;;;;;;5050341;28;19982;-68
2022/09/22 01:29:35;;;;;;;;;;;6.60;99.90;;;;;;5050114;28;19925;-68
2022/09/22 01:32:19;;;;;;;;;;;6.80;99.90;;;;;;5049153;28;20009;-68
2022/09/22 01:34:54;;;;;;;;;;;6.70;99.90;;;;;;5048385;28;19921;-68
2022/09/22 01:37:40;;;;;;;;;;;6.70;99.90;;;;;;5047417;28;19928;-68
2022/09/22 01:40:08;;;;;;;;;;;6.80;99.90;;;;;;5049986;28;19921;-68
2022/09/22 01:42:36;;;;;;;;;;;6.70;99.90;;;;;;5047707;28;20378;-68
2022/09/22 01:45:09;;;;;;;;;;;6.70;99.90;;;;;;5031095;28;20022;-68
2022/09/22 01:47:39;;;;;;;;;;;6.50;99.90;;;;;;5049178;28;19929;-68
2022/09/22 01:50:25;;;;;;;;;;;6.50;99.90;;;;;;5049875;28;20359;-68
2022/09/22 01:52:52;;;;;;;;;;;6.50;99.90;;;;;;5052863;28;19924;-68
2022/09/22 01:55:26;;;;;;;;;;;6.40;99.90;;;;;;5052903;28;19932;-68
2022/09/22 01:58:00;;;;;;;;;;;6.40;99.90;;;;;;5053116;28;19940;-68
2022/09/22 02:00:26;;;;;;;;;;;6.40;99.90;;;;;;5035803;28;19931;-68
2022/09/22 02:02:59;;;;;;;;;;;6.40;99.90;;;;;;5054641;28;19925;-68
2022/09/22 02:05:28;;;;;;;;;;;6.40;99.90;;;;;;5053787;28;19932;-68
2022/09/22 02:07:54;;;;;;;;;;;6.50;99.90;;;;;;5053320;28;20419;-68
2022/09/22 02:10:23;;;;;;;;;;;6.50;99.90;;;;;;5049249;28;19975;-68
2022/09/22 02:12:49;;;;;;;;;;;6.50;99.90;;;;;;5042119;28;19921;-68
2022/09/22 02:18:15;;;;;;;;;;;6.50;99.90;;;;;;5029958;28;19931;-68
2022/09/22 02:20:41;;;;;;;;;;;6.30;99.90;;;;;;5051858;28;19928;-68
2022/09/22 02:23:06;;;;;;;;;;;6.40;99.90;;;;;;5052092;28;19925;-68
2022/09/22 02:25:33;;;;;;;;;;;6.20;99.90;;;;;;5052362;28;19932;-68
2022/09/22 02:27:59;;;;;;;;;;;6.20;99.90;;;;;;5051141;28;19970;-68
2022/09/22 02:30:25;;;;;;;;;;;6.20;99.90;;;;;;5049686;28;19940;-68
2022/09/22 02:32:51;;;;;;;;;;;6.20;99.90;;;;;;5050640;28;19932;-68
2022/09/22 02:35:17;;;;;;;;;;;6.10;99.90;;;;;;5032950;28;19979;-68
2022/09/22 02:37:52;;;;;;;;;;;6.10;99.90;;;;;;5052394;28;19964;-68
2022/09/22 02:40:36;;;;;;;;;;;6.10;99.90;;;;;;5051689;28;19959;-68
2022/09/22 02:43:20;;;;;;;;;;;6.00;99.90;;;;;;5054089;28;19924;-68
2022/09/22 02:45:55;;;;;;;;;;;6.00;99.90;;;;;;5052898;28;20345;-68
2022/09/22 02:48:27;;;;;;;;;;;6.00;99.90;;;;;;5051682;28;19924;-68
2022/09/22 02:50:52;;;;;;;;;;;6.00;99.90;;;;;;5049351;28;19935;-68
2022/09/22 02:53:18;;;;;;;;;;;6.00;99.90;;;;;;5052407;28;19924;-68
2022/09/22 02:55:44;;;;;;;;;;;6.00;99.90;;;;;;5051416;28;20285;-68
2022/09/22 02:58:10;;;;;;;;;;;6.00;99.90;;;;;;5051631;28;19968;-68
2022/09/22 03:00:36;;;;;;;;;;;5.90;99.90;;;;;;5050983;28;19929;-68
2022/09/22 03:03:02;;;;;;;;;;;5.90;99.90;;;;;;5049739;28;19931;-68
2022/09/22 03:05:28;;;;;;;;;;;5.80;99.90;;;;;;5051821;28;19928;-68
2022/09/22 03:07:53;;;;;;;;;;;5.80;99.90;;;;;;5047904;28;19924;-68
2022/09/22 03:10:19;;;;;;;;;;;5.80;99.90;;;;;;5050877;28;19921;-68
2022/09/22 03:12:44;;;;;;;;;;;5.80;99.90;;;;;;5048982;28;20275;-68
2022/09/22 03:15:10;;;;;;;;;;;5.80;99.90;;;;;;5049949;28;20023;-68
2022/09/22 03:17:36;;;;;;;;;;;5.80;99.90;;;;;;5051352;28;19971;-68
2022/09/22 03:20:03;;;;;;;;;;;5.80;99.90;;;;;;5051375;28;19967;-68
2022/09/22 03:22:28;;;;;;;;;;;5.80;99.90;;;;;;5049258;28;19922;-68
2022/09/22 03:24:54;;;;;;;;;;;5.70;99.90;;;;;;5050941;28;19982;-68
2022/09/22 03:27:19;;;;;;;;;;;5.70;99.90;;;;;;5048061;28;19978;-68
2022/09/22 03:29:44;;;;;;;;;;;5.70;99.90;;;;;;5051290;28;19920;-68
2022/09/22 03:32:10;;;;;;;;;;;5.70;99.90;;;;;;5052370;28;20411;-68
2022/09/22 03:34:35;;;;;;;;;;;5.70;99.90;;;;;;5050743;28;19921;-68
2022/09/22 03:37:01;;;;;;;;;;;5.70;99.90;;;;;;5034267;28;20076;-68
2022/09/22 03:39:26;;;;;;;;;;;5.70;99.90;;;;;;5044475;28;19928;-68
2022/09/22 03:41:52;;;;;;;;;;;5.70;99.90;;;;;;5032008;28;19925;-68
2022/09/22 03:44:17;;;;;;;;;;;5.70;99.90;;;;;;5049211;28;20384;-68
2022/09/22 03:46:43;;;;;;;;;;;5.70;99.90;;;;;;5050913;28;19971;-68
2022/09/22 03:49:09;;;;;;;;;;;5.70;99.90;;;;;;5051770;28;19925;-68
2022/09/22 03:51:34;;;;;;;;;;;5.60;99.90;;;;;;5053155;28;20449;-68
2022/09/22 03:54:00;;;;;;;;;;;5.60;99.90;;;;;;5051548;28;19921;-68
2022/09/22 03:56:25;;;;;;;;;;;5.60;99.90;;;;;;5051550;28;19927;-68
2022/09/22 03:58:50;;;;;;;;;;;5.60;99.90;;;;;;5051462;28;19960;-68
2022/09/22 04:01:16;;;;;;;;;;;5.60;99.90;;;;;;5049144;28;20293;-68
2022/09/22 04:03:42;;;;;;;;;;;5.50;99.90;;;;;;5052785;28;19924;-68
2022/09/22 04:06:08;;;;;;;;;;;5.50;99.90;;;;;;5051158;28;20007;-68
2022/09/22 04:08:33;;;;;;;;;;;5.50;99.90;;;;;;5051797;28;20333;-68
2022/09/22 04:10:59;;;;;;;;;;;5.50;99.90;;;;;;5034044;28;19921;-68
2022/09/22 04:13:25;;;;;;;;;;;5.50;99.90;;;;;;5052407;28;19921;-68
2022/09/22 04:15:50;;;;;;;;;;;5.50;99.90;;;;;;5050396;28;19929;-68
2022/09/22 04:18:16;;;;;;;;;;;5.40;99.90;;;;;;5050038;28;19924;-68
2022/09/22 04:20:44;;;;;;;;;;;5.40;99.90;;;;;;5051111;28;19925;-68
2022/09/22 04:23:11;;;;;;;;;;;5.40;99.90;;;;;;5049916;28;19931;-68
2022/09/22 04:25:37;;;;;;;;;;;5.40;99.90;;;;;;5050840;28;19925;-68
2022/09/22 04:28:03;;;;;;;;;;;5.40;99.90;;;;;;5051008;28;19935;-67
2022/09/22 04:30:29;;;;;;;;;;;5.40;99.90;;;;;;5050962;28;20632;-68
2022/09/22 04:32:54;;;;;;;;;;;5.30;99.90;;;;;;5050968;28;19956;-68
2022/09/22 04:35:20;;;;;;;;;;;5.40;99.90;;;;;;5049007;28;19921;-68
2022/09/22 04:37:45;;;;;;;;;;;5.40;99.90;;;;;;5049188;28;19928;-68
2022/09/22 04:40:11;;;;;;;;;;;5.40;99.90;;;;;;5049290;28;20651;-68
2022/09/22 04:42:37;;;;;;;;;;;5.40;99.90;;;;;;5051086;28;19924;-68
2022/09/22 04:45:03;;;;;;;;;;;5.30;99.90;;;;;;5033564;28;19991;-68
2022/09/22 04:47:29;;;;;;;;;;;5.30;99.90;;;;;;5050598;28;19947;-68
2022/09/22 04:49:54;;;;;;;;;;;5.30;99.90;;;;;;5049695;28;19975;-68
2022/09/22 04:52:20;;;;;;;;;;;5.30;99.90;;;;;;5048099;28;20042;-68
2022/09/22 04:54:45;;;;;;;;;;;5.30;99.90;;;;;;5049385;28;19969;-68
2022/09/22 04:57:11;;;;;;;;;;;5.20;99.90;;;;;;5050243;28;19929;-68
2022/09/22 04:59:36;;;;;;;;;;;5.20;99.90;;;;;;5050351;28;20271;-68
2022/09/22 05:02:02;;;;;;;;;;;5.20;99.90;;;;;;5048023;28;20046;-68
2022/09/22 05:04:28;;;;;;;;;;;5.20;99.90;;;;;;5049325;28;19928;-68
2022/09/22 05:06:54;;;;;;;;;;;5.20;99.90;;;;;;5048245;28;19948;-68
2022/09/22 05:09:19;;;;;;;;;;;5.20;99.90;;;;;;5048183;28;19921;-68
2022/09/22 05:11:47;;;;;;;;;;;5.20;99.90;;;;;;5049273;28;19925;-68
2022/09/22 05:14:14;;;;;;;;;;;5.20;99.90;;;;;;5048092;28;19935;-68
2022/09/22 05:16:40;;;;;;;;;;;5.20;99.90;;;;;;5047684;28;19920;-68
2022/09/22 05:19:08;;;;;;;;;;;5.20;99.90;;;;;;5047662;28;19964;-68
2022/09/22 05:21:34;;;;;;;;;;;5.20;99.90;;;;;;5049982;28;20348;-68
2022/09/22 05:23:59;;;;;;;;;;;5.20;99.90;;;;;;5048127;28;19929;-68
2022/09/22 05:26:25;;;;;;;;;;;5.20;99.90;;;;;;5050800;28;20381;-68
2022/09/22 05:28:50;;;;;;;;;;;5.20;99.90;;;;;;5053452;28;19927;-68
2022/09/22 05:31:16;;;;;;;;;;;5.20;99.90;;;;;;5053208;28;19928;-68
2022/09/22 05:33:42;;;;;;;;;;;5.20;99.90;;;;;;5054063;28;19921;-68
2022/09/22 05:36:07;;;;;;;;;;;5.20;99.90;;;;;;5053054;28;20255;-68
2022/09/22 05:38:33;;;;;;;;;;;5.20;99.90;;;;;;5052298;28;19924;-68
2022/09/22 05:40:58;;;;;;;;;;;5.30;99.90;;;;;;5051799;28;19931;-68
2022/09/22 05:43:24;;;;;;;;;;;5.30;99.90;;;;;;5040289;28;19928;-68
2022/09/22 05:45:49;;;;;;;;;;;5.30;99.90;;;;;;5055252;28;19929;-68
2022/09/22 05:48:14;;;;;;;;;;;5.40;99.90;;;;;;5052949;28;19924;-68
2022/09/22 05:50:41;;;;;;;;;;;5.40;99.90;;;;;;5052500;28;19923;-68
2022/09/22 05:53:08;;;;;;;;;;;5.40;99.90;;;;;;5038724;28;20429;-67
2022/09/22 05:55:34;;;;;;;;;;;5.50;99.90;;;;;;5050400;28;20008;-68
2022/09/22 05:58:00;;;;;;;;;;;5.50;99.90;;;;;;5053812;28;20086;-68
2022/09/22 06:00:25;;;;;;;;;;;5.50;99.90;;;;;;5051095;28;19951;-68
2022/09/22 06:02:51;;;;;;;;;;;5.50;99.90;;;;;;5053652;28;19924;-68
2022/09/22 06:05:17;;;;;;;;;;;5.50;99.90;;;;;;5054524;28;19925;-68
2022/09/22 06:07:42;;;;;;;;;;;5.60;99.90;;;;;;5053526;28;19928;-68
2022/09/22 06:10:10;;;;;;;;;;;5.70;99.90;;;;;;5054936;28;19948;-68
2022/09/22 06:12:36;;;;;;;;;;;5.70;99.90;;;;;;5052960;28;19951;-68
2022/09/22 06:15:02;;;;;;;;;;;5.80;99.90;;;;;;5053826;28;19921;-68
2022/09/22 06:17:28;;;;;;;;;;;6.00;99.90;;;;;;5052996;28;20294;-68
2022/09/22 06:19:53;;;;;;;;;;;6.40;99.90;;;;;;5052656;28;19924;-68
2022/09/22 06:22:19;;;;;;;;;;;7.10;99.90;;;;;;5053991;28;20007;-68
2022/09/22 06:24:44;;;;;;;;;;;7.90;99.90;;;;;;5062353;28;19967;-69
2022/09/22 06:27:10;;;;;;;;;;;8.80;99.90;;;;;;5055927;28;19932;-69
2022/09/22 06:29:36;;;;;;;;;;;9.70;99.90;;;;;;5055154;28;19920;-69
2022/09/22 06:32:02;;;;;;;;;;;10.80;99.90;;;;;;5056299;28;19921;-69
2022/09/22 06:34:28;;;;;;;;;;;11.60;99.90;;;;;;5039568;28;19931;-68
2022/09/22 06:36:55;;;;;;;;;;;12.40;99.90;;;;;;5056363;28;20011;-69
2022/09/22 06:39:21;;;;;;;;;;;13.10;99.90;;;;;;5052451;23;20679;-69
2022/09/22 06:41:48;;;;;;;;;;;13.60;99.90;;;;;;5071439;28;20011;-69
2022/09/22 06:44:14;;;;;;;;;;;14.10;99.90;;;;;;5067372;28;19919;-69
2022/09/22 06:46:39;;;;;;;;;;;14.60;99.00;;;;;;5057204;28;19928;-69
2022/09/22 06:49:05;;;;;;;;;;;15.00;98.60;;;;;;5069574;28;19986;-69
2022/09/22 06:51:32;;;;;;;;;;;15.50;98.20;;;;;;5064172;28;19964;-70
2022/09/22 06:53:58;;;;;;;;;;;15.90;96.60;;;;;;5047505;28;19956;-69
2022/09/22 06:56:24;;;;;;;;;;;16.20;96.00;;;;;;5065924;28;20027;-69
2022/09/22 06:58:50;;;;;;;;;;;16.70;95.10;;;;;;5092772;28;19924;-69
2022/09/22 07:01:17;;;;;;;;;;;17.00;94.50;;;;;;5093167;28;20015;-69
2022/09/22 07:03:43;;;;;;;;;;;17.50;93.70;;;;;;5045575;28;19927;-69
2022/09/22 07:06:09;;;;;;;;;;;17.60;93.10;;;;;;5073830;28;19928;-69
2022/09/22 07:08:37;;;;;;;;;;;17.80;92.50;;;;;;5062148;28;20315;-69
2022/09/22 07:11:06;;;;;;;;;;;17.70;92.70;;;;;;5061659;28;19921;-69
2022/09/22 07:13:35;;;;;;;;;;;18.00;92.60;;;;;;5084139;28;20011;-69
2022/09/22 07:16:08;;;;;;;;;;;18.20;91.70;;;;;;5066165;28;19920;-69
2022/09/22 07:18:34;;;;;;;;;;;18.30;91.80;;;;;;5060177;28;19931;-69
2022/09/22 07:21:00;;;;;;;;;;;18.20;92.70;;;;;;5066317;28;19974;-69
2022/09/22 07:23:26;;;;;;;;;;;18.50;92.60;;;;;;5073282;28;19947;-69
2022/09/22 07:25:55;;;;;;;;;;;18.50;92.60;;;;;;5088686;28;19924;-69
2022/09/22 07:28:22;;;;;;;;;;;17.90;93.10;;;;;;5065365;28;19924;-69
2022/09/22 07:30:47;;;;;;;;;;;16.80;94.40;;;;;;5064846;28;19928;-68
2022/09/22 07:33:13;;;;;;;;;;;15.90;96.50;;;;;;5078686;28;20346;-68
2022/09/22 07:35:38;;;;;;;;;;;15.40;98.20;;;;;;5081131;28;19963;-68
2022/09/22 07:38:04;;;;;;;;;;;14.70;99.90;;;;;;5083508;28;19931;-68
2022/09/22 07:40:30;;;;;;;;;;;14.20;99.90;;;;;;5081532;28;20319;-68
2022/09/22 07:42:55;;;;;;;;;;;14.00;99.90;;;;;;5069422;28;19920;-68
2022/09/22 07:45:22;;;;;;;;;;;13.70;99.90;;;;;;5066731;28;20301;-68
2022/09/22 07:50:32;;;;;;;;;;;13.30;99.90;;;;;;5074675;28;19920;-68
2022/09/22 07:52:57;;;;;;;;;;;13.10;99.90;;;;;;5073805;28;19920;-68
2022/09/22 07:55:23;;;;;;;;;;;13.00;99.90;;;;;;5093351;28;20010;-68
2022/09/22 07:57:53;;;;;;;;;;;13.00;99.90;;;;;;5073544;28;19964;-68
2022/09/22 08:00:19;;;;;;;;;;;12.90;99.90;;;;;;5091958;28;19924;-68
2022/09/22 08:02:49;;;;;;;;;;;12.80;99.90;;;;;;5073481;28;19973;-68
2022/09/22 08:05:15;;;;;;;;;;;12.90;99.90;;;;;;5074644;28;19920;-68
2022/09/22 08:07:42;;;;;;;;;;;12.90;99.90;;;;;;5073200;28;19931;-68
2022/09/22 08:10:09;;;;;;;;;;;12.90;99.90;;;;;;5063477;28;19974;-68
2022/09/22 08:12:36;;;;;;;;;;;13.00;99.90;;;;;;5062694;28;19920;-68
2022/09/22 08:15:02;;;;;;;;;;;13.00;99.90;;;;;;5074513;28;19928;-68
2022/09/22 08:17:27;;;;;;;;;;;13.10;99.90;;;;;;5071022;28;19928;-68
2022/09/22 08:19:54;;;;;;;;;;;13.10;99.90;;;;;;5066808;28;19920;-66
2022/09/22 08:22:19;;;;;;;;;;;13.20;99.90;;;;;;5056195;28;19965;-68
2022/09/22 08:24:45;;;;;;;;;;;13.20;99.90;;;;;;5090793;28;19928;-68
2022/09/22 08:27:10;;;;;;;;;;;13.30;99.90;;;;;;5070655;28;19924;-68
2022/09/22 08:29:36;;;;;;;;;;;13.40;99.90;;;;;;5070123;28;20381;-68
2022/09/22 08:32:01;;;;;;;;;;;13.50;99.90;;;;;;5065875;28;19934;-68
2022/09/22 08:34:27;;;;;;;;;;;13.60;99.90;;;;;;5071438;28;19920;-68
2022/09/22 08:36:54;;;;;;;;;;;13.70;99.90;;;;;;5061357;28;19935;-68
2022/09/22 08:39:20;;;;;;;;;;;13.80;99.90;;;;;;5075588;28;19924;-68
2022/09/22 08:41:58;;;;;;;;;;;13.90;99.90;;;;;;5065392;28;19927;-68
2022/09/22 08:44:27;;;;;;;;;;;13.90;99.90;;;;;;5062935;28;19989;-68
2022/09/22 08:46:53;;;;;;;;;;;14.00;99.90;;;;;;5060216;28;20304;-68
2022/09/22 08:52:41;;;;;;;;;;;14.30;99.90;;;;;;5092264;28;19923;-68
2022/09/22 08:55:14;;;;;;;;;;;14.30;99.90;;;;;;5086902;28;19920;-68
2022/09/22 08:57:40;;;;;;;;;;;14.40;99.90;;;;;;5070770;28;19928;-68
2022/09/22 09:00:10;;;;;;;;;;;14.50;99.90;;;;;;5072554;28;19989;-68
2022/09/22 09:02:44;;;;;;;;;;;14.60;99.90;;;;;;5069802;28;19924;-68
2022/09/22 09:05:25;;;;;;;;;;;14.70;99.90;;;;;;5070775;28;19931;-67
2022/09/22 09:07:58;;;;;;;;;;;14.80;99.90;;;;;;5072703;28;19928;-68
2022/09/22 09:10:31;;;;;;;;;;;14.90;99.90;;;;;;5069550;28;19928;-68
2022/09/22 09:13:03;;;;;;;;;;;15.00;99.90;;;;;;5064686;28;19920;-68
2022/09/22 09:15:48;;;;;;;;;;;15.10;99.90;;;;;;5068240;28;20028;-68
2022/09/22 09:18:15;;;;;;;;;;;15.20;99.90;;;;;;5070577;28;20030;-68
2022/09/22 09:20:45;;;;;;;;;;;15.30;99.90;;;;;;5061042;28;19920;-68
2022/09/22 09:23:22;;;;;;;;;;;15.40;99.90;;;;;;5090901;28;19990;-68
2022/09/22 09:25:53;;;;;;;;;;;15.40;99.90;;;;;;5052949;28;19924;-68
2022/09/22 09:28:20;;;;;;;;;;;15.50;99.90;;;;;;5071039;28;20364;-68
2022/09/22 09:30:46;;;;;;;;;;;15.50;99.90;;;;;;5050239;28;19931;-68
2022/09/22 09:33:22;;;;;;;;;;;15.60;99.90;;;;;;5066811;28;19924;-68
2022/09/22 09:35:51;;;;;;;;;;;15.70;99.90;;;;;;5064715;28;19982;-68
2022/09/22 09:38:18;;;;;;;;;;;15.70;99.90;;;;;;5070384;28;19945;-68
2022/09/22 09:40:53;;;;;;;;;;;15.70;99.90;;;;;;5080987;28;19943;-67
2022/09/22 09:43:20;;;;;;;;;;;15.80;99.90;;;;;;5064672;28;19952;-68
2022/09/22 09:46:15;;;;;;;;;;;15.90;99.90;;;;;;5081097;28;19924;-68
2022/09/22 09:48:50;;;;;;;;;;;16.00;99.90;;;;;;5016801;28;20063;-68
2022/09/22 09:51:15;;;;;;;;;;;16.00;99.90;;;;;;5077834;28;19923;-68
2022/09/22 09:53:42;;;;;;;;;;;16.00;99.90;;;;;;5079350;28;19920;-68
2022/09/22 09:56:23;;;;;;;;;;;16.00;99.60;;;;;;5090964;28;19920;-68
2022/09/22 10:01:45;;;;;;;;;;;16.20;99.90;;;;;;5061823;28;20304;-68
2022/09/22 10:04:20;;;;;;;;;;;16.30;99.90;;;;;;5072160;28;20338;-68
2022/09/22 10:06:46;;;;;;;;;;;16.40;99.30;;;;;;5088095;28;19931;-68
2022/09/22 10:09:21;;;;;;;;;;;16.40;99.90;;;;;;5070321;28;20274;-68
2022/09/22 10:11:56;;;;;;;;;;;16.40;98.70;;;;;;5069208;28;19970;-68
2022/09/22 10:14:23;;;;;;;;;;;16.60;99.70;;;;;;5073115;28;19924;-68
2022/09/22 10:16:52;;;;;;;;;;;16.60;99.30;;;;;;5076193;28;20258;-68
2022/09/22 10:19:21;;;;;;;;;;;16.70;99.60;;;;;;5059394;28;19924;-68
2022/09/22 10:21:47;;;;;;;;;;;16.80;99.20;;;;;;5076637;28;20572;-68
2022/09/22 10:24:27;;;;;;;;;;;16.90;98.60;;;;;;5075002;28;19927;-68
2022/09/22 10:26:56;;;;;;;;;;;16.90;97.30;;;;;;5093304;28;20327;-68
2022/09/22 10:29:22;;;;;;;;;;;17.00;98.60;;;;;;5068800;28;19926;-68
2022/09/22 10:32:06;;;;;;;;;;;17.10;98.50;;;;;;5072942;28;19924;-68
2022/09/22 10:34:33;;;;;;;;;;;17.20;98.00;;;;;;5076364;28;20008;-68
2022/09/22 10:36:59;;;;;;;;;;;17.20;97.70;;;;;;5093663;28;19955;-68
2022/09/22 10:39:31;;;;;;;;;;;17.20;95.20;;;;;;5075002;28;20451;-68
2022/09/22 10:41:56;;;;;;;;;;;17.20;95.40;;;;;;5074641;28;20587;-68
2022/09/22 10:44:24;;;;;;;;;;;17.30;96.60;;;;;;5072124;28;20007;-68
2022/09/22 10:46:56;;;;;;;;;;;17.50;96.80;;;;;;5075625;28;20378;-68
2022/09/22 10:49:27;;;;;;;;;;;17.60;96.70;;;;;;5091092;28;19920;-68
2022/09/22 10:51:55;;;;;;;;;;;17.70;97.10;;;;;;5072679;28;19920;-68
2022/09/22 10:54:32;;;;;;;;;;;17.60;96.70;;;;;;5073988;28;19943;-68
2022/09/22 10:57:08;;;;;;;;;;;17.50;97.40;;;;;;5074508;28;19927;-68
2022/09/22 10:59:33;;;;;;;;;;;17.30;95.30;;;;;;5090448;28;20289;-68
2022/09/22 11:02:17;;;;;;;;;;;17.20;97.40;;;;;;5084549;28;19928;-68
2022/09/22 11:05:07;;;;;;;;;;;17.10;95.40;;;;;;5073818;28;19935;-68
2022/09/22 11:13:30;;;;;;;;;;;17.10;94.60;;;;;;5093196;28;20343;-68
2022/09/22 11:15:58;;;;;;;;;;;17.20;94.90;;;;;;5071344;28;19927;-68
2022/09/22 11:18:27;;;;;;;;;;;17.30;95.20;;;;;;5075421;28;19928;-68
2022/09/22 11:21:30;;;;;;;;;;;17.30;93.70;;;;;;5069213;28;19928;-68
2022/09/22 11:24:10;;;;;;;;;;;17.40;95.20;;;;;;4991522;28;19928;-68
2022/09/22 11:26:46;;;;;;;;;;;17.80;95.20;;;;;;5065336;28;19928;-68
2022/09/22 11:29:30;;;;;;;;;;;18.00;95.30;;;;;;5092673;28;20265;-68
2022/09/22 11:32:14;;;;;;;;;;;18.00;95.00;;;;;;5074515;28;20316;-68
2022/09/22 11:34:46;;;;;;;;;;;17.90;92.10;;;;;;5074478;28;19964;-68
2022/09/22 11:37:25;;;;;;;;;;;18.00;91.70;;;;;;5091824;28;20359;-68
2022/09/22 11:40:02;;;;;;;;;;;18.10;92.40;;;;;;5071909;28;20416;-68
2022/09/22 11:42:33;;;;;;;;;;;18.30;94.10;;;;;;5091088;28;19928;-68
2022/09/22 11:44:58;;;;;;;;;;;18.30;92.30;;;;;;5085424;28;20305;-68
2022/09/22 11:47:29;;;;;;;;;;;18.30;93.90;;;;;;5090842;28;19934;-68
2022/09/22 11:50:07;;;;;;;;;;;18.30;92.40;;;;;;5074935;28;19924;-68
2022/09/22 11:52:32;;;;;;;;;;;18.40;92.90;;;;;;5076340;28;19924;-69
2022/09/22 11:55:19;;;;;;;;;;;18.50;93.50;;;;;;5060948;28;19943;-69
2022/09/22 11:57:47;;;;;;;;;;;18.70;92.60;;;;;;5078290;28;19924;-69
2022/09/22 12:00:17;;;;;;;;;;;18.70;91.40;;;;;;5071280;28;20068;-69
2022/09/22 12:02:45;;;;;;;;;;;18.50;93.30;;;;;;5072578;28;20385;-69
2022/09/22 12:05:10;;;;;;;;;;;18.40;92.40;;;;;;5074243;28;19920;-69
2022/09/22 12:07:43;;;;;;;;;;;18.20;90.40;;;;;;5091480;28;19935;-69
2022/09/22 12:10:43;;;;;;;;;;;18.10;93.50;;;;;;5072085;28;19981;-69
2022/09/22 12:13:20;;;;;;;;;;;18.20;93.30;;;;;;5026747;28;19946;-68
2022/09/22 12:15:45;;;;;;;;;;;18.30;91.70;;;;;;5077692;28;19920;-68
2022/09/22 12:18:13;;;;;;;;;;;18.40;93.70;;;;;;5069129;28;19934;-68
2022/09/22 12:20:48;;;;;;;;;;;18.60;93.20;;;;;;5088192;28;20285;-68
2022/09/22 12:23:32;;;;;;;;;;;18.80;92.00;;;;;;5074201;28;19926;-68
2022/09/22 12:26:00;;;;;;;;;;;18.90;91.00;;;;;;5059712;28;19924;-68
2022/09/22 12:28:27;;;;;;;;;;;19.00;88.50;;;;;;5073479;28;20339;-68
2022/09/22 12:30:55;;;;;;;;;;;19.10;91.50;;;;;;5090362;28;19928;-68
2022/09/22 12:33:21;;;;;;;;;;;19.10;91.10;;;;;;5080344;28;20004;-69
2022/09/22 12:35:52;;;;;;;;;;;19.00;90.90;;;;;;5063343;28;19959;-68
2022/09/22 12:38:19;;;;;;;;;;;18.80;88.60;;;;;;5090648;28;19927;-69
2022/09/22 12:40:46;;;;;;;;;;;18.90;90.00;;;;;;5092507;28;20053;-69
2022/09/22 12:43:15;;;;;;;;;;;18.90;90.80;;;;;;5089263;28;19939;-68
2022/09/22 12:45:41;;;;;;;;;;;19.00;92.50;;;;;;5089840;28;19991;-68
2022/09/22 12:48:09;;;;;;;;;;;19.00;90.40;;;;;;5073820;28;19924;-69
2022/09/22 12:50:38;;;;;;;;;;;19.20;90.60;;;;;;5073964;28;19924;-69
2022/09/22 12:53:08;;;;;;;;;;;19.30;91.80;;;;;;5071489;28;19928;-69
2022/09/22 12:55:37;;;;;;;;;;;19.30;90.40;;;;;;5059817;28;19920;-69
2022/09/22 12:58:26;;;;;;;;;;;19.40;88.70;;;;;;5088539;28;19927;-68
2022/09/22 13:00:52;;;;;;;;;;;19.30;90.80;;;;;;5048122;28;19938;-68
2022/09/22 13:03:24;;;;;;;;;;;19.20;87.60;;;;;;5075191;28;19931;-68
2022/09/22 13:05:56;;;;;;;;;;;18.90;87.40;;;;;;5089761;28;19924;-68
2022/09/22 13:08:24;;;;;;;;;;;18.60;86.50;;;;;;5069578;28;19931;-69
2022/09/22 13:11:03;;;;;;;;;;;18.50;88.30;;;;;;5068916;28;19924;-69
2022/09/22 13:13:28;;;;;;;;;;;18.50;88.80;;;;;;5067199;28;20014;-69
2022/09/22 13:15:55;;;;;;;;;;;18.60;89.20;;;;;;5072405;28;20015;-69
2022/09/22 13:18:38;;;;;;;;;;;18.70;88.80;;;;;;5071903;28;19963;-69
2022/09/22 13:21:13;;;;;;;;;;;18.60;89.60;;;;;;5075154;28;19920;-68
2022/09/22 13:23:48;;;;;;;;;;;18.80;88.60;;;;;;5066240;28;19926;-68
2022/09/22 13:26:15;;;;;;;;;;;18.90;90.50;;;;;;5083408;28;19924;-68
2022/09/22 13:28:40;;;;;;;;;;;19.10;86.20;;;;;;5068056;28;19924;-68
2022/09/22 13:31:13;;;;;;;;;;;19.20;87.40;;;;;;5067596;28;19926;-68
2022/09/22 13:33:39;;;;;;;;;;;19.20;86.80;;;;;;5073016;28;19935;-68
2022/09/22 13:36:06;;;;;;;;;;;19.20;90.60;;;;;;5072070;28;20006;-68
2022/09/22 13:38:33;;;;;;;;;;;19.00;90.90;;;;;;5073321;28;20289;-68
2022/09/22 13:40:59;;;;;;;;;;;18.90;91.50;;;;;;5090806;28;19920;-68
2022/09/22 13:43:27;;;;;;;;;;;18.60;90.40;;;;;;5061011;28;20020;-68
2022/09/22 13:45:53;;;;;;;;;;;18.40;90.50;;;;;;5067263;28;19998;-68
2022/09/22 13:48:20;;;;;;;;;;;18.50;90.70;;;;;;5075174;28;19932;-68
2022/09/22 13:50:51;;;;;;;;;;;18.50;90.00;;;;;;5092795;28;20297;-68
2022/09/22 13:53:18;;;;;;;;;;;18.50;89.10;;;;;;5061194;28;20013;-68
2022/09/22 13:55:46;;;;;;;;;;;18.70;90.40;;;;;;5078327;28;19970;-68
2022/09/22 13:58:13;;;;;;;;;;;18.80;90.40;;;;;;5082611;28;19924;-68
2022/09/22 14:00:43;;;;;;;;;;;18.80;89.40;;;;;;5090742;28;20297;-68
2022/09/22 14:03:14;;;;;;;;;;;18.90;90.50;;;;;;5084577;28;19926;-68
2022/09/22 14:05:40;;;;;;;;;;;18.90;91.30;;;;;;5058402;28;19927;-68
2022/09/22 14:08:06;;;;;;;;;;;19.00;90.90;;;;;;5085554;28;19925;-68
2022/09/22 14:10:32;;;;;;;;;;;19.00;88.40;;;;;;5087063;28;19927;-68
2022/09/22 14:12:58;;;;;;;;;;;18.90;90.10;;;;;;5094379;28;21169;-68
2022/09/22 14:15:35;;;;;;;;;;;18.80;88.60;;;;;;5072242;28;19935;-68
2022/09/22 14:18:07;;;;;;;;;;;18.80;89.10;;;;;;5091111;28;19955;-68
2022/09/22 14:20:37;;;;;;;;;;;18.70;89.60;;;;;;5072163;28;19971;-68
2022/09/22 14:23:02;;;;;;;;;;;18.60;90.60;;;;;;5056571;28;19931;-68
2022/09/22 14:25:31;;;;;;;;;;;18.50;91.90;;;;;;5060575;28;20042;-68
2022/09/22 14:27:58;;;;;;;;;;;18.50;92.20;;;;;;5085255;28;19924;-68
2022/09/22 14:30:27;;;;;;;;;;;18.50;91.20;;;;;;5075099;28;19946;-68
2022/09/22 14:32:55;;;;;;;;;;;18.50;91.80;;;;;;5072939;28;19927;-68
2022/09/22 14:35:26;;;;;;;;;;;18.60;91.20;;;;;;5074125;28;19924;-68
2022/09/22 14:37:52;;;;;;;;;;;18.50;90.10;;;;;;5095521;28;19978;-68
2022/09/22 14:40:19;;;;;;;;;;;18.60;90.90;;;;;;5065464;28;20425;-68
2022/09/22 14:42:54;;;;;;;;;;;18.50;91.40;;;;;;5067943;28;19928;-68
2022/09/22 14:45:21;;;;;;;;;;;18.40;92.30;;;;;;5074083;28;19935;-68
2022/09/22 14:48:06;;;;;;;;;;;18.30;91.60;;;;;;5074279;28;19977;-68
2022/09/22 14:50:44;;;;;;;;;;;18.30;90.60;;;;;;5072806;28;19924;-68